createdAt,value
2017-08-08T00:01:45.724Z,21.70
2017-08-08T00:04:12.604Z,18.93
2017-08-08T00:06:39.492Z,20.03
2017-08-08T00:09:06.320Z,21.27
2017-08-08T00:11:33.120Z,21.13
2017-08-08T00:13:59.899Z,21.03
2017-08-08T00:16:26.732Z,20.70
2017-08-08T00:18:53.592Z,21.37
2017-08-08T00:21:20.367Z,22.40
2017-08-08T00:23:47.184Z,23.90
2017-08-08T00:26:14.061Z,22.47
2017-08-08T00:28:40.827Z,23.10
2017-08-08T00:31:07.667Z,21.47
2017-08-08T00:33:34.546Z,21.13
2017-08-08T00:36:01.374Z,20.97
2017-08-08T00:38:28.206Z,21.03
2017-08-08T00:40:55.090Z,22.00
2017-08-08T00:43:21.870Z,21.27
2017-08-08T00:45:48.650Z,21.40
2017-08-08T00:48:15.568Z,21.73
2017-08-08T00:50:42.345Z,22.43
2017-08-08T00:53:09.191Z,21.17
2017-08-08T00:55:36.129Z,22.97
2017-08-08T00:58:02.909Z,22.07
2017-08-08T01:00:29.727Z,21.67
2017-08-08T01:02:56.561Z,19.77
2017-08-08T01:05:23.347Z,22.13
2017-08-08T01:07:50.188Z,22.17
2017-08-08T01:10:17.087Z,22.27
2017-08-08T01:12:43.917Z,21.80
2017-08-08T01:15:10.763Z,21.93
2017-08-08T01:17:37.561Z,21.07
2017-08-08T01:20:04.388Z,21.17
2017-08-08T01:22:31.169Z,22.20
2017-08-08T01:24:57.985Z,20.80
2017-08-08T01:27:24.760Z,21.63
2017-08-08T01:29:51.538Z,23.37
2017-08-08T01:32:18.346Z,21.77
2017-08-08T01:34:45.175Z,22.23
2017-08-08T01:37:11.949Z,21.43
2017-08-08T01:39:38.869Z,22.23
2017-08-08T01:42:05.715Z,21.10
2017-08-08T01:44:32.533Z,21.47
2017-08-08T01:46:59.426Z,22.30
2017-08-08T01:49:26.198Z,22.17
2017-08-08T01:51:53.043Z,24.03
2017-08-08T01:54:19.861Z,21.60
2017-08-08T01:56:46.658Z,22.90
2017-08-08T01:59:13.452Z,21.53
2017-08-08T02:01:40.293Z,22.70
2017-08-08T02:04:07.189Z,21.30
2017-08-08T02:06:34.034Z,24.20
2017-08-08T02:09:00.861Z,21.13
2017-08-08T02:11:27.665Z,21.67
2017-08-08T02:13:54.431Z,21.50
2017-08-08T02:16:22.217Z,20.93
2017-08-08T02:18:49.070Z,20.93
2017-08-08T02:21:15.914Z,20.83
2017-08-08T02:23:43.060Z,21.20
2017-08-08T02:26:10.004Z,20.90
2017-08-08T02:28:36.766Z,23.60
2017-08-08T02:31:03.654Z,21.93
2017-08-08T02:33:30.527Z,22.97
2017-08-08T02:35:57.297Z,23.67
2017-08-08T02:38:24.521Z,21.00
2017-08-08T02:40:51.299Z,22.73
2017-08-08T02:43:18.064Z,23.30
2017-08-08T02:45:44.863Z,21.70
2017-08-08T02:48:11.630Z,22.23
2017-08-08T02:50:38.831Z,23.20
2017-08-08T02:53:05.664Z,22.70
2017-08-08T02:55:32.513Z,21.53
2017-08-08T02:58:00.311Z,39.70
2017-08-08T03:00:27.195Z,30.57
2017-08-08T03:02:54.019Z,23.50
2017-08-08T03:05:28.157Z,23.77
2017-08-08T03:07:54.980Z,22.47
2017-08-08T03:10:21.823Z,23.37
2017-08-08T03:12:48.653Z,22.33
2017-08-08T03:15:15.429Z,23.90
2017-08-08T03:17:42.278Z,21.67
2017-08-08T03:20:09.145Z,21.87
2017-08-08T03:22:35.980Z,21.23
2017-08-08T03:25:02.756Z,23.77
2017-08-08T03:27:29.648Z,22.60
2017-08-08T03:29:56.415Z,21.80
2017-08-08T03:32:23.185Z,22.67
2017-08-08T03:34:50.002Z,25.13
2017-08-08T03:37:16.842Z,22.90
2017-08-08T03:39:43.614Z,24.83
2017-08-08T03:42:10.484Z,24.03
2017-08-08T03:44:37.264Z,25.23
2017-08-08T03:47:04.088Z,23.50
2017-08-08T03:49:30.918Z,24.90
2017-08-08T03:51:57.740Z,24.93
2017-08-08T03:54:24.579Z,26.80
2017-08-08T03:56:51.476Z,22.97
2017-08-08T03:59:18.330Z,23.07
2017-08-08T04:01:45.096Z,22.73
2017-08-08T04:04:11.992Z,22.60
2017-08-08T04:06:38.830Z,23.97
2017-08-08T04:09:05.768Z,25.13
2017-08-08T04:11:32.640Z,25.40
2017-08-08T04:13:59.469Z,24.40
2017-08-08T04:16:26.292Z,24.97
2017-08-08T04:18:53.100Z,26.73
2017-08-08T04:21:19.869Z,27.23
2017-08-08T04:23:46.726Z,25.60
2017-08-08T04:26:13.546Z,26.23
2017-08-08T04:28:40.397Z,23.80
2017-08-08T04:31:07.238Z,24.67
2017-08-08T04:33:34.058Z,26.20
2017-08-08T04:36:00.830Z,24.73
2017-08-08T04:38:27.670Z,27.77
2017-08-08T04:40:54.564Z,26.03
2017-08-08T04:43:21.392Z,28.63
2017-08-08T04:45:48.168Z,26.13
2017-08-08T04:48:15.046Z,29.80
2017-08-08T04:50:41.889Z,26.40
2017-08-08T04:53:09.658Z,29.83
2017-08-08T04:55:36.562Z,28.80
2017-08-08T04:58:03.335Z,26.33
2017-08-08T05:00:30.105Z,28.90
2017-08-08T05:02:57.009Z,28.33
2017-08-08T05:05:23.784Z,32.30
2017-08-08T05:07:50.636Z,30.87
2017-08-08T05:10:17.436Z,30.50
2017-08-08T05:12:44.264Z,31.50
2017-08-08T05:15:11.890Z,31.37
2017-08-08T05:17:38.718Z,30.07
2017-08-08T05:20:05.543Z,29.93
2017-08-08T05:22:32.389Z,28.43
2017-08-08T05:24:59.216Z,28.23
2017-08-08T05:27:26.218Z,31.53
2017-08-08T05:29:52.996Z,32.83
2017-08-08T05:32:19.822Z,31.33
2017-08-08T05:34:46.609Z,29.57
2017-08-08T05:37:13.515Z,27.47
2017-08-08T05:39:40.319Z,31.93
2017-08-08T05:42:07.098Z,29.87
2017-08-08T05:44:33.924Z,25.83
2017-08-08T05:47:00.734Z,36.37
2017-08-08T05:49:27.563Z,28.53
2017-08-08T05:51:54.354Z,28.13
2017-08-08T05:54:21.243Z,30.33
2017-08-08T05:56:48.150Z,33.10
2017-08-08T05:59:15.097Z,30.37
2017-08-08T06:01:41.983Z,32.73
2017-08-08T06:04:08.824Z,30.80
2017-08-08T06:06:35.613Z,32.20
2017-08-08T06:09:02.873Z,32.70
2017-08-08T06:11:29.645Z,31.17
2017-08-08T06:13:56.476Z,30.37
2017-08-08T06:16:23.366Z,28.60
2017-08-08T06:18:50.549Z,31.93
2017-08-08T06:21:17.420Z,32.80
2017-08-08T06:23:44.248Z,31.63
2017-08-08T06:26:11.078Z,30.50
2017-08-08T06:28:37.865Z,34.57
2017-08-08T06:31:04.663Z,32.07
2017-08-08T06:33:31.514Z,31.20
2017-08-08T06:35:58.292Z,29.40
2017-08-08T06:38:25.113Z,31.90
2017-08-08T06:40:51.940Z,28.93
2017-08-08T06:43:18.731Z,31.53
2017-08-08T06:45:45.564Z,32.40
2017-08-08T06:48:12.412Z,29.73
2017-08-08T06:50:39.198Z,30.87
2017-08-08T06:53:06.022Z,30.40
2017-08-08T06:55:32.805Z,30.47
2017-08-08T06:57:59.576Z,29.90
2017-08-08T07:00:26.439Z,26.67
2017-08-08T07:02:53.225Z,26.47
2017-08-08T07:05:20.005Z,30.77
2017-08-08T07:07:46.881Z,27.83
2017-08-08T07:10:13.720Z,31.80
2017-08-08T07:12:40.563Z,32.07
2017-08-08T07:15:07.432Z,27.90
2017-08-08T07:17:34.200Z,29.13
2017-08-08T07:20:00.978Z,29.10
2017-08-08T07:22:27.860Z,29.27
2017-08-08T07:24:54.710Z,35.10
2017-08-08T07:27:21.599Z,30.17
2017-08-08T07:29:48.416Z,31.73
2017-08-08T07:32:15.201Z,31.80
2017-08-08T07:34:41.992Z,32.50
2017-08-08T07:37:08.805Z,28.53
2017-08-08T07:39:35.607Z,28.33
2017-08-08T07:42:03.216Z,26.10
2017-08-08T07:44:30.555Z,31.40
2017-08-08T07:46:57.331Z,25.67
2017-08-08T07:49:24.211Z,26.97
2017-08-08T07:51:51.091Z,28.03
2017-08-08T07:54:17.942Z,28.37
2017-08-08T07:56:44.756Z,25.57
2017-08-08T07:59:11.640Z,28.57
2017-08-08T08:01:38.439Z,26.00
2017-08-08T08:04:05.315Z,25.03
2017-08-08T08:06:32.156Z,26.20
2017-08-08T08:08:58.952Z,25.60
2017-08-08T08:11:25.791Z,24.03
2017-08-08T08:13:52.645Z,24.97
2017-08-08T08:16:19.435Z,25.50
2017-08-08T08:18:46.267Z,23.13
2017-08-08T08:21:13.179Z,24.33
2017-08-08T08:23:41.139Z,21.43
2017-08-08T08:26:07.932Z,21.80
2017-08-08T08:28:34.830Z,22.27
2017-08-08T08:31:01.692Z,23.80
2017-08-08T08:33:28.560Z,22.10
2017-08-08T08:35:55.642Z,21.87
2017-08-08T08:38:22.440Z,22.70
2017-08-08T08:40:49.943Z,22.30
2017-08-08T08:43:16.850Z,22.00
2017-08-08T08:45:43.652Z,23.60
2017-08-08T08:48:10.582Z,22.30
2017-08-08T08:50:37.431Z,22.40
2017-08-08T08:53:04.266Z,22.80
2017-08-08T08:55:31.063Z,24.23
2017-08-08T08:57:57.920Z,23.33
2017-08-08T09:00:24.776Z,21.90
2017-08-08T09:02:51.733Z,22.40
2017-08-08T09:05:18.823Z,20.83
2017-08-08T09:07:45.680Z,22.00
2017-08-08T09:10:12.539Z,20.70
2017-08-08T09:12:39.410Z,22.10
2017-08-08T09:15:06.286Z,21.07
2017-08-08T09:17:33.080Z,23.53
2017-08-08T09:19:59.921Z,22.83
2017-08-08T09:22:26.719Z,22.43
2017-08-08T09:24:53.558Z,19.30
2017-08-08T09:27:20.458Z,22.70
2017-08-08T09:29:47.437Z,20.37
2017-08-08T09:32:14.315Z,21.83
2017-08-08T09:34:41.294Z,22.07
2017-08-08T09:37:08.152Z,21.30
2017-08-08T09:39:34.949Z,23.43
2017-08-08T09:42:01.864Z,20.70
2017-08-08T09:44:28.720Z,20.00
2017-08-08T09:46:56.295Z,19.70
2017-08-08T09:49:23.182Z,19.30
2017-08-08T09:51:49.980Z,20.23
2017-08-08T09:54:16.779Z,20.03
2017-08-08T09:56:43.687Z,22.23
2017-08-08T09:59:10.577Z,21.27
2017-08-08T10:01:37.482Z,18.90
2017-08-08T10:04:04.328Z,19.83
2017-08-08T10:06:31.202Z,18.83
2017-08-08T10:08:58.020Z,19.67
2017-08-08T10:11:24.898Z,20.50
2017-08-08T10:13:51.889Z,20.70
2017-08-08T10:16:19.255Z,21.00
2017-08-08T10:18:46.166Z,20.23
2017-08-08T10:21:12.972Z,19.47
2017-08-08T10:23:39.862Z,22.20
2017-08-08T10:26:06.711Z,20.83
2017-08-08T10:28:33.561Z,20.13
2017-08-08T10:31:00.700Z,19.17
2017-08-08T10:33:28.557Z,18.93
2017-08-08T10:35:55.423Z,19.60
2017-08-08T10:38:22.234Z,21.30
2017-08-08T10:40:49.071Z,20.03
2017-08-08T10:43:15.924Z,20.30
2017-08-08T10:45:42.732Z,19.83
2017-08-08T10:48:09.595Z,19.90
2017-08-08T10:50:36.437Z,21.27
2017-08-08T10:53:04.220Z,21.20
2017-08-08T10:55:31.124Z,20.67
2017-08-08T10:57:58.322Z,20.40
2017-08-08T11:00:25.186Z,20.60
2017-08-08T11:02:52.024Z,20.50
2017-08-08T11:05:18.894Z,20.50
2017-08-08T11:07:46.496Z,20.30
2017-08-08T11:10:14.715Z,19.43
2017-08-08T11:12:41.564Z,18.60
2017-08-08T11:15:08.428Z,17.50
2017-08-08T11:17:35.266Z,19.80
2017-08-08T11:20:03.420Z,19.93
2017-08-08T11:22:30.285Z,19.30
2017-08-08T11:24:57.164Z,19.53
2017-08-08T11:27:23.965Z,19.40
2017-08-08T11:29:50.865Z,19.07
2017-08-08T11:32:19.480Z,19.40
2017-08-08T11:34:47.171Z,19.33
2017-08-08T11:37:14.877Z,18.20
2017-08-08T11:39:41.745Z,17.53
2017-08-08T11:42:09.273Z,18.10
2017-08-08T11:44:37.073Z,18.43
2017-08-08T11:47:05.707Z,18.10
2017-08-08T11:49:32.529Z,17.93
2017-08-08T11:51:59.396Z,17.93
2017-08-08T11:54:26.278Z,20.27
2017-08-08T11:56:54.996Z,17.63
2017-08-08T11:59:21.938Z,18.50
2017-08-08T12:01:48.926Z,17.20
2017-08-08T12:04:15.736Z,17.53
2017-08-08T12:06:42.608Z,17.97
2017-08-08T12:09:09.525Z,17.23
2017-08-08T12:11:36.388Z,18.77
2017-08-08T12:14:03.194Z,18.80
2017-08-08T12:16:30.033Z,18.30
2017-08-08T12:18:56.853Z,18.43
2017-08-08T12:21:23.675Z,18.03
2017-08-08T12:23:50.534Z,18.90
2017-08-08T12:26:17.357Z,18.30
2017-08-08T12:28:44.216Z,17.67
2017-08-08T12:31:11.062Z,17.27
2017-08-08T12:33:37.857Z,18.43
2017-08-08T12:36:04.659Z,16.90
2017-08-08T12:38:31.491Z,17.60
2017-08-08T12:40:58.308Z,17.20
2017-08-08T12:43:25.925Z,16.33
2017-08-08T12:45:52.786Z,16.47
2017-08-08T12:48:19.580Z,16.90
2017-08-08T12:50:46.429Z,18.33
2017-08-08T12:53:13.309Z,17.73
2017-08-08T12:55:40.106Z,17.73
2017-08-08T12:58:06.901Z,19.03
2017-08-08T13:00:33.751Z,17.77
2017-08-08T13:03:00.540Z,17.87
2017-08-08T13:05:27.359Z,17.83
2017-08-08T13:07:54.267Z,19.00
2017-08-08T13:10:21.068Z,17.43
2017-08-08T13:12:47.934Z,17.63
2017-08-08T13:15:14.773Z,17.77
2017-08-08T13:17:42.529Z,18.50
2017-08-08T13:20:09.315Z,16.83
2017-08-08T13:22:36.180Z,19.00
2017-08-08T13:25:03.080Z,19.33
2017-08-08T13:27:29.901Z,18.50
2017-08-08T13:29:57.065Z,18.53
2017-08-08T13:32:23.878Z,18.77
2017-08-08T13:34:50.689Z,17.23
2017-08-08T13:37:17.528Z,18.80
2017-08-08T13:39:44.338Z,18.33
2017-08-08T13:42:11.154Z,19.83
2017-08-08T13:44:40.353Z,19.10
2017-08-08T13:47:07.139Z,18.40
2017-08-08T13:49:34.871Z,18.10
2017-08-08T13:52:01.710Z,19.40
2017-08-08T13:54:28.528Z,19.47
2017-08-08T13:56:55.397Z,19.83
2017-08-08T13:59:24.301Z,20.43
2017-08-08T14:01:51.099Z,18.13
2017-08-08T14:04:18.477Z,18.80
2017-08-08T14:06:45.438Z,19.37
2017-08-08T14:09:12.240Z,19.40
2017-08-08T14:11:39.046Z,19.20
2017-08-08T14:14:05.897Z,20.23
2017-08-08T14:16:32.708Z,19.90
2017-08-08T14:18:59.588Z,19.20
2017-08-08T14:21:26.492Z,18.87
2017-08-08T14:23:53.295Z,18.03
2017-08-08T14:26:20.169Z,18.47
2017-08-08T14:28:47.030Z,19.57
2017-08-08T14:31:13.905Z,18.80
2017-08-08T14:33:41.243Z,20.47
2017-08-08T14:36:08.119Z,20.50
2017-08-08T14:38:34.925Z,18.60
2017-08-08T14:41:01.745Z,20.00
2017-08-08T14:43:28.586Z,18.50
2017-08-08T14:45:55.407Z,18.77
2017-08-08T14:48:22.213Z,19.07
2017-08-08T14:50:49.090Z,18.50
2017-08-08T14:53:15.883Z,18.30
2017-08-08T14:55:43.539Z,17.63
2017-08-08T14:58:11.896Z,17.90
2017-08-08T15:00:38.693Z,18.00
2017-08-08T15:03:05.487Z,18.60
2017-08-08T15:05:32.417Z,19.83
2017-08-08T15:07:59.238Z,17.03
2017-08-08T15:10:26.108Z,19.10
2017-08-08T15:12:53.046Z,19.20
2017-08-08T15:15:19.853Z,17.97
2017-08-08T15:17:46.701Z,17.63
2017-08-08T15:20:13.602Z,19.60
2017-08-08T15:22:40.416Z,19.40
2017-08-08T15:25:07.878Z,19.63
2017-08-08T15:27:34.721Z,20.50
2017-08-08T15:30:02.153Z,19.73
2017-08-08T15:32:29.013Z,19.67
2017-08-08T15:34:56.058Z,18.90
2017-08-08T15:37:22.925Z,19.73
2017-08-08T15:39:49.785Z,19.00
2017-08-08T15:42:18.182Z,19.17
2017-08-08T15:44:44.972Z,22.10
2017-08-08T15:47:18.180Z,24.90
2017-08-08T15:49:45.049Z,25.67
2017-08-08T15:52:11.947Z,26.37
2017-08-08T15:54:38.803Z,26.20
2017-08-08T15:57:05.612Z,25.17
2017-08-08T15:59:32.415Z,25.70
2017-08-08T16:01:59.325Z,28.17
2017-08-08T16:04:26.181Z,25.93
2017-08-08T16:06:53.072Z,25.03
2017-08-08T16:09:20.001Z,26.03
2017-08-08T16:11:46.829Z,25.03
2017-08-08T16:14:13.695Z,27.70
2017-08-08T16:16:40.549Z,25.67
2017-08-08T16:19:07.336Z,25.37
2017-08-08T16:21:34.209Z,25.30
2017-08-08T16:24:01.112Z,27.40
2017-08-08T16:26:27.993Z,24.43
2017-08-08T16:28:54.799Z,26.90
2017-08-08T16:31:22.148Z,24.63
2017-08-08T16:33:48.973Z,24.87
2017-08-08T16:36:16.006Z,27.73
2017-08-08T16:38:42.865Z,36.13
2017-08-08T16:41:09.722Z,39.30
2017-08-08T16:43:36.523Z,37.73
2017-08-08T16:46:03.375Z,35.63
2017-08-08T16:48:30.179Z,40.47
2017-08-08T16:50:57.216Z,31.33
2017-08-08T16:53:24.100Z,30.03
2017-08-08T16:55:50.898Z,29.07
2017-08-08T16:58:17.752Z,29.17
2017-08-08T17:00:44.695Z,26.80
2017-08-08T17:03:12.047Z,27.17
2017-08-08T17:05:38.929Z,29.30
2017-08-08T17:08:05.787Z,26.40
2017-08-08T17:10:32.668Z,27.33
2017-08-08T17:12:59.553Z,24.30
2017-08-08T17:15:26.744Z,27.97
2017-08-08T17:17:54.377Z,29.93
2017-08-08T17:20:21.225Z,25.17
2017-08-08T17:22:49.449Z,24.20
2017-08-08T17:25:16.300Z,23.90
2017-08-08T17:27:43.638Z,23.93
2017-08-08T17:30:10.449Z,28.43
2017-08-08T17:32:37.307Z,26.00
2017-08-08T17:35:04.166Z,25.93
2017-08-08T17:37:31.054Z,27.87
2017-08-08T17:39:57.852Z,23.50
2017-08-08T17:42:24.648Z,23.93
2017-08-08T17:44:51.488Z,23.30
2017-08-08T17:47:18.312Z,23.43
2017-08-08T17:49:45.212Z,23.30
2017-08-08T17:52:12.123Z,24.30
2017-08-08T17:54:38.904Z,23.50
2017-08-08T17:57:05.716Z,22.83
2017-08-08T17:59:32.634Z,25.67
2017-08-08T18:01:59.454Z,23.20
2017-08-08T18:04:27.150Z,23.87
2017-08-08T18:06:54.218Z,24.57
2017-08-08T18:09:21.003Z,23.53
2017-08-08T18:11:47.780Z,24.90
2017-08-08T18:14:14.891Z,23.20
2017-08-08T18:16:41.771Z,24.30
2017-08-08T18:19:08.549Z,24.17
2017-08-08T18:21:35.640Z,23.77
2017-08-08T18:24:02.416Z,22.73
2017-08-08T18:26:29.190Z,22.40
2017-08-08T18:28:56.276Z,24.60
2017-08-08T18:31:23.222Z,29.50
2017-08-08T18:33:50.025Z,25.40
2017-08-08T18:36:16.854Z,25.53
2017-08-08T18:38:43.703Z,26.77
2017-08-08T18:41:10.496Z,28.23
2017-08-08T18:43:37.648Z,27.27
2017-08-08T18:46:04.414Z,28.50
2017-08-08T18:48:31.192Z,28.33
2017-08-08T18:50:58.049Z,28.20
2017-08-08T18:53:24.830Z,27.90
2017-08-08T18:55:51.631Z,27.40
2017-08-08T18:58:23.696Z,25.10
2017-08-08T19:00:50.546Z,26.00
2017-08-08T19:03:17.324Z,24.50
2017-08-08T19:05:44.232Z,26.40
2017-08-08T19:08:11.912Z,25.60
2017-08-08T19:10:38.693Z,26.57
2017-08-08T19:13:05.524Z,25.47
2017-08-08T19:15:32.321Z,25.97
2017-08-08T19:17:59.112Z,25.63
2017-08-08T19:20:26.232Z,27.27
2017-08-08T19:22:53.009Z,27.57
2017-08-08T19:25:19.794Z,31.50
2017-08-08T19:27:46.739Z,28.83
2017-08-08T19:30:13.524Z,27.83
2017-08-08T19:32:40.320Z,26.70
2017-08-08T19:35:07.160Z,30.40
2017-08-08T19:37:33.993Z,28.90
2017-08-08T19:40:00.883Z,29.93
2017-08-08T19:42:27.718Z,29.83
2017-08-08T19:44:54.583Z,32.13
2017-08-08T19:47:21.458Z,30.30
2017-08-08T19:49:48.336Z,32.50
2017-08-08T19:52:15.182Z,30.20
2017-08-08T19:54:42.042Z,29.07
2017-08-08T19:57:11.782Z,28.90
2017-08-08T19:59:38.573Z,28.83
2017-08-08T20:02:05.413Z,31.20
2017-08-08T20:04:32.230Z,32.50
2017-08-08T20:06:59.030Z,31.17
2017-08-08T20:09:25.847Z,28.30
2017-08-08T20:11:52.682Z,27.60
2017-08-08T20:14:19.452Z,31.17
2017-08-08T20:16:46.296Z,29.77
2017-08-08T20:19:13.199Z,29.13
2017-08-08T20:21:40.009Z,26.17
2017-08-08T20:24:06.790Z,25.20
2017-08-08T20:26:33.596Z,26.30
2017-08-08T20:29:00.459Z,25.33
2017-08-08T20:31:27.237Z,25.60
2017-08-08T20:33:54.049Z,24.20
2017-08-08T20:36:21.268Z,25.70
2017-08-08T20:38:49.040Z,26.53
2017-08-08T20:41:15.925Z,24.47
2017-08-08T20:43:47.131Z,24.10
2017-08-08T20:46:15.224Z,23.23
2017-08-08T20:48:43.425Z,22.80
2017-08-08T20:51:10.326Z,24.90
2017-08-08T20:53:37.195Z,25.63
2017-08-08T20:56:04.020Z,23.17
2017-08-08T20:58:30.908Z,24.70
2017-08-08T21:00:57.864Z,24.17
2017-08-08T21:03:24.696Z,26.80
2017-08-08T21:05:51.492Z,23.50
2017-08-08T21:08:18.294Z,23.60
2017-08-08T21:10:45.108Z,21.40
2017-08-08T21:13:11.899Z,22.27
2017-08-08T21:15:38.738Z,21.30
2017-08-08T21:18:05.631Z,22.40
2017-08-08T21:20:32.423Z,20.00
2017-08-08T21:22:59.256Z,20.17
2017-08-08T21:25:26.093Z,20.10
2017-08-08T21:27:52.868Z,19.60
2017-08-08T21:30:19.645Z,20.70
2017-08-08T21:32:46.449Z,19.30
2017-08-08T21:35:13.243Z,19.73
2017-08-08T21:37:40.087Z,18.80
2017-08-08T21:40:06.892Z,20.83
2017-08-08T21:42:33.678Z,19.27
2017-08-08T21:45:00.515Z,19.03
2017-08-08T21:47:27.359Z,18.70
2017-08-08T21:49:54.135Z,18.27
2017-08-08T21:52:20.937Z,16.40
2017-08-08T21:54:47.748Z,17.30
2017-08-08T21:57:14.586Z,16.50
2017-08-08T21:59:41.383Z,17.57
2017-08-08T22:02:08.224Z,16.00
2017-08-08T22:04:35.073Z,15.40
2017-08-08T22:07:01.854Z,17.17
2017-08-08T22:09:28.730Z,18.70
2017-08-08T22:11:55.506Z,17.00
2017-08-08T22:14:22.316Z,18.20
2017-08-08T22:16:49.170Z,17.93
2017-08-08T22:19:16.010Z,16.80
2017-08-08T22:21:42.782Z,16.70
2017-08-08T22:24:09.615Z,17.13
2017-08-08T22:26:36.388Z,17.27
2017-08-08T22:29:03.171Z,19.00
2017-08-08T22:31:29.998Z,16.20
2017-08-08T22:33:56.839Z,15.80
2017-08-08T22:36:23.632Z,17.07
2017-08-08T22:38:50.466Z,15.97
2017-08-08T22:41:17.252Z,16.33
2017-08-08T22:43:44.020Z,16.40
2017-08-08T22:46:10.855Z,16.80
2017-08-08T22:48:37.633Z,15.77
2017-08-08T22:51:04.424Z,15.87
2017-08-08T22:53:31.318Z,16.40
2017-08-08T22:55:58.131Z,17.67
2017-08-08T22:58:24.928Z,17.20
2017-08-08T23:00:51.767Z,17.47
2017-08-08T23:03:18.547Z,18.67
2017-08-08T23:05:45.312Z,16.60
2017-08-08T23:08:12.194Z,18.57
2017-08-08T23:10:38.983Z,18.93
2017-08-08T23:13:05.834Z,20.37
2017-08-08T23:15:32.667Z,20.17
2017-08-08T23:17:59.429Z,18.70
2017-08-08T23:20:26.196Z,17.30
2017-08-08T23:22:53.027Z,19.20
2017-08-08T23:25:19.871Z,17.53
2017-08-08T23:27:46.776Z,17.70
2017-08-08T23:30:13.670Z,17.73
2017-08-08T23:32:40.464Z,17.40
2017-08-08T23:35:07.263Z,15.70
2017-08-08T23:37:37.712Z,17.27
2017-08-08T23:40:04.480Z,16.53
2017-08-08T23:42:31.321Z,15.73
2017-08-08T23:44:58.148Z,15.70
2017-08-08T23:47:24.927Z,16.00
2017-08-08T23:49:51.772Z,16.50
2017-08-08T23:52:18.644Z,15.93
2017-08-08T23:54:45.458Z,15.60
2017-08-08T23:57:12.254Z,16.17
2017-08-08T23:59:39.092Z,16.17
